createdAt,value
2022-11-20T00:01:13.020Z,25.63
2022-11-20T00:03:39.480Z,21.77
2022-11-20T00:06:08.036Z,22.77
2022-11-20T00:08:34.600Z,24.75
2022-11-20T00:11:06.196Z,25.65
2022-11-20T00:13:33.238Z,23.10
2022-11-20T00:16:01.208Z,22.75
2022-11-20T00:18:28.557Z,24.33
2022-11-20T00:21:00.759Z,22.38
2022-11-20T00:23:27.155Z,27.85
2022-11-20T00:25:53.507Z,25.70
2022-11-20T00:28:19.956Z,27.55
2022-11-20T00:30:46.301Z,29.85
2022-11-20T00:33:12.691Z,22.92
2022-11-20T00:35:39.083Z,25.48
2022-11-20T00:38:05.458Z,26.00
2022-11-20T00:40:31.824Z,22.63
2022-11-20T00:42:58.278Z,24.00
2022-11-20T00:45:24.620Z,23.48
2022-11-20T00:47:51.019Z,25.58
2022-11-20T00:50:17.421Z,26.80
2022-11-20T00:52:43.795Z,24.60
2022-11-20T00:55:10.148Z,25.42
2022-11-20T00:57:36.592Z,22.70
2022-11-20T01:00:03.725Z,25.40
2022-11-20T01:02:30.097Z,21.02
2022-11-20T01:04:56.435Z,26.23
2022-11-20T01:07:22.862Z,25.20
2022-11-20T01:09:49.251Z,25.50
2022-11-20T01:12:15.699Z,23.45
2022-11-20T01:14:42.016Z,22.98
2022-11-20T01:17:08.420Z,24.40
2022-11-20T01:19:34.772Z,26.20
2022-11-20T01:22:01.207Z,26.48
2022-11-20T01:24:27.576Z,26.05
2022-11-20T01:26:54.087Z,27.55
2022-11-20T01:29:24.440Z,25.85
2022-11-20T01:31:51.131Z,24.77
2022-11-20T01:34:20.153Z,25.70
2022-11-20T01:36:47.488Z,27.40
2022-11-20T01:39:23.178Z,29.75
2022-11-20T01:42:10.677Z,25.30
2022-11-20T01:44:59.525Z,26.40
2022-11-20T01:47:51.927Z,25.38
2022-11-20T01:50:25.519Z,24.67
2022-11-20T01:52:58.011Z,29.77
2022-11-20T01:55:32.930Z,25.75
2022-11-20T01:58:00.568Z,24.58
2022-11-20T02:00:27.016Z,24.13
2022-11-20T02:02:58.461Z,23.42
2022-11-20T02:05:39.866Z,28.35
2022-11-20T02:08:07.754Z,23.83
2022-11-20T02:10:34.438Z,26.90
2022-11-20T02:13:19.335Z,25.67
2022-11-20T02:15:47.215Z,25.92
2022-11-20T02:18:16.207Z,27.08
2022-11-20T02:20:49.075Z,26.65
2022-11-20T02:23:33.750Z,26.95
2022-11-20T02:26:04.063Z,25.52
2022-11-20T02:28:30.522Z,27.33
2022-11-20T02:30:57.183Z,30.10
2022-11-20T02:33:23.607Z,30.67
2022-11-20T02:35:50.047Z,24.45
2022-11-20T02:38:16.589Z,29.23
2022-11-20T02:40:43.255Z,28.30
2022-11-20T02:43:10.313Z,29.38
2022-11-20T02:45:37.079Z,29.98
2022-11-20T02:48:03.558Z,28.15
2022-11-20T02:50:29.932Z,27.58
2022-11-20T02:52:56.294Z,29.05
2022-11-20T02:55:23.010Z,28.65
2022-11-20T02:57:49.400Z,27.23
2022-11-20T03:00:16.012Z,29.20
2022-11-20T03:02:42.399Z,31.05
2022-11-20T03:05:09.172Z,31.83
2022-11-20T03:07:35.596Z,31.40
2022-11-20T03:10:02.035Z,26.70
2022-11-20T03:12:28.396Z,27.75
2022-11-20T03:14:54.747Z,30.27
2022-11-20T03:17:21.162Z,26.65
2022-11-20T03:19:47.530Z,28.48
2022-11-20T03:22:14.168Z,31.40
2022-11-20T03:24:40.551Z,29.17
2022-11-20T03:27:06.909Z,26.48
2022-11-20T03:29:33.335Z,31.10
2022-11-20T03:32:00.833Z,27.02
2022-11-20T03:34:27.167Z,28.17
2022-11-20T03:36:53.631Z,28.48
2022-11-20T03:39:20.304Z,29.90
2022-11-20T03:41:46.898Z,28.90
2022-11-20T03:44:13.325Z,29.55
2022-11-20T03:46:40.178Z,30.77
2022-11-20T03:49:06.760Z,29.67
2022-11-20T03:51:35.318Z,25.15
2022-11-20T03:54:07.846Z,32.08
2022-11-20T03:56:37.148Z,28.63
2022-11-20T03:59:03.969Z,33.25
2022-11-20T04:01:33.651Z,27.95
2022-11-20T04:04:00.761Z,27.50
2022-11-20T04:06:31.892Z,32.30
2022-11-20T04:08:59.522Z,34.38
2022-11-20T04:11:28.620Z,31.75
2022-11-20T04:14:00.501Z,28.27
2022-11-20T04:16:30.016Z,30.33
2022-11-20T04:18:59.069Z,29.65
2022-11-20T04:21:26.546Z,30.67
2022-11-20T04:23:53.968Z,33.78
2022-11-20T04:26:21.648Z,32.35
2022-11-20T04:28:48.058Z,30.23
2022-11-20T04:31:16.582Z,35.50
2022-11-20T04:33:43.660Z,28.45
2022-11-20T04:36:16.255Z,31.42
2022-11-20T04:38:42.845Z,25.73
2022-11-20T04:41:15.466Z,30.38
2022-11-20T04:43:41.945Z,31.73
2022-11-20T04:46:08.288Z,29.27
2022-11-20T04:48:35.781Z,32.42
2022-11-20T04:51:05.415Z,32.38
2022-11-20T04:53:32.060Z,35.67
2022-11-20T04:56:03.348Z,27.48
2022-11-20T04:58:30.199Z,31.88
2022-11-20T05:01:24.694Z,30.23
2022-11-20T05:03:51.408Z,31.98
2022-11-20T05:06:19.746Z,28.83
2022-11-20T05:08:46.358Z,29.92
2022-11-20T05:11:15.145Z,31.10
2022-11-20T05:13:41.806Z,33.28
2022-11-20T05:16:14.076Z,30.73
2022-11-20T05:18:41.762Z,33.05
2022-11-20T05:21:09.931Z,34.95
2022-11-20T05:23:37.525Z,33.92
2022-11-20T05:26:05.164Z,33.80
2022-11-20T05:28:32.513Z,30.30
2022-11-20T05:31:10.309Z,34.05
2022-11-20T05:33:37.373Z,34.10
2022-11-20T05:36:04.745Z,29.90
2022-11-20T05:38:31.169Z,30.50
2022-11-20T05:41:05.440Z,33.60
2022-11-20T05:43:36.119Z,32.95
2022-11-20T05:46:03.861Z,30.83
2022-11-20T05:48:30.338Z,32.22
2022-11-20T05:50:59.223Z,33.47
2022-11-20T05:53:27.707Z,34.28
2022-11-20T05:56:01.241Z,33.35
2022-11-20T05:58:27.881Z,30.95
2022-11-20T06:00:54.245Z,30.63
2022-11-20T06:03:21.317Z,34.83
2022-11-20T06:05:47.657Z,37.75
2022-11-20T06:08:14.060Z,29.83
2022-11-20T06:10:40.395Z,37.47
2022-11-20T06:13:06.789Z,43.35
2022-11-20T06:15:33.142Z,34.30
2022-11-20T06:17:59.890Z,37.80
2022-11-20T06:20:26.210Z,39.05
2022-11-20T06:22:53.683Z,39.38
2022-11-20T06:25:20.034Z,40.35
2022-11-20T06:27:46.441Z,38.08
2022-11-20T06:30:13.252Z,39.38
2022-11-20T06:32:39.627Z,42.00
2022-11-20T06:35:06.284Z,38.08
2022-11-20T06:37:32.678Z,42.15
2022-11-20T06:39:59.032Z,37.13
2022-11-20T06:42:25.427Z,43.25
2022-11-20T06:44:51.748Z,39.70
2022-11-20T06:47:18.125Z,43.78
2022-11-20T06:49:44.693Z,35.88
2022-11-20T06:52:11.071Z,40.55
2022-11-20T06:54:37.431Z,37.75
2022-11-20T06:57:03.810Z,37.35
2022-11-20T06:59:30.273Z,38.65
2022-11-20T07:01:56.613Z,39.42
2022-11-20T07:04:22.948Z,40.17
2022-11-20T07:06:49.381Z,38.75
2022-11-20T07:09:15.827Z,36.08
2022-11-20T07:11:42.268Z,39.38
2022-11-20T07:14:08.630Z,36.85
2022-11-20T07:16:34.994Z,37.92
2022-11-20T07:19:01.336Z,42.67
2022-11-20T07:21:27.790Z,36.28
2022-11-20T07:23:54.247Z,41.92
2022-11-20T07:26:20.623Z,40.90
2022-11-20T07:28:47.210Z,42.63
2022-11-20T07:31:18.803Z,42.50
2022-11-20T07:33:45.617Z,42.83
2022-11-20T07:36:12.078Z,39.22
2022-11-20T07:38:39.000Z,39.80
2022-11-20T07:41:05.580Z,37.78
2022-11-20T07:43:33.898Z,36.92
2022-11-20T07:46:04.795Z,41.42
2022-11-20T07:48:31.145Z,36.78
2022-11-20T07:50:57.752Z,30.27
2022-11-20T07:53:24.692Z,32.88
2022-11-20T07:55:53.256Z,35.63
2022-11-20T07:58:20.956Z,34.55
2022-11-20T08:00:47.773Z,32.92
2022-11-20T08:03:14.594Z,34.83
2022-11-20T08:05:40.967Z,37.53
2022-11-20T08:08:08.558Z,34.05
2022-11-20T08:10:35.071Z,37.20
2022-11-20T08:13:19.932Z,31.52
2022-11-20T08:15:53.215Z,33.47
2022-11-20T08:18:35.168Z,37.50
2022-11-20T08:21:05.058Z,37.05
2022-11-20T08:23:31.751Z,34.17
2022-11-20T08:25:58.332Z,33.20
2022-11-20T08:28:24.773Z,36.85
2022-11-20T08:30:51.588Z,34.40
2022-11-20T08:33:18.943Z,39.67
2022-11-20T08:35:45.458Z,40.20
2022-11-20T08:38:11.834Z,36.00
2022-11-20T08:40:38.215Z,40.33
2022-11-20T08:43:05.182Z,44.33
2022-11-20T08:45:34.724Z,37.03
2022-11-20T08:48:03.319Z,36.13
2022-11-20T08:50:32.467Z,37.72
2022-11-20T08:53:06.488Z,38.83
2022-11-20T08:55:33.591Z,39.33
2022-11-20T08:58:04.984Z,42.45
2022-11-20T09:00:31.370Z,38.45
2022-11-20T09:02:59.405Z,39.58
2022-11-20T09:05:25.796Z,38.85
2022-11-20T09:07:52.283Z,38.35
2022-11-20T09:10:25.821Z,40.92
2022-11-20T09:12:53.500Z,41.50
2022-11-20T09:15:20.203Z,40.58
2022-11-20T09:17:53.457Z,36.55
2022-11-20T09:20:21.041Z,36.50
2022-11-20T09:22:47.551Z,41.30
2022-11-20T09:25:14.119Z,42.75
2022-11-20T09:27:42.288Z,32.28
2022-11-20T09:30:09.133Z,41.10
2022-11-20T09:32:36.555Z,38.03
2022-11-20T09:35:03.201Z,37.08
2022-11-20T09:37:30.007Z,35.95
2022-11-20T09:39:56.376Z,39.38
2022-11-20T09:42:49.122Z,39.17
2022-11-20T09:46:03.571Z,38.55
2022-11-20T09:48:48.163Z,40.08
2022-11-20T09:51:25.972Z,33.70
2022-11-20T09:54:17.011Z,37.50
2022-11-20T09:56:47.426Z,39.10
2022-11-20T09:59:39.292Z,40.50
2022-11-20T10:02:25.931Z,33.90
2022-11-20T10:05:07.930Z,35.40
2022-11-20T10:07:44.283Z,36.50
2022-11-20T10:10:43.938Z,47.03
2022-11-20T10:13:43.154Z,42.85
2022-11-20T10:16:41.200Z,43.13
2022-11-20T10:19:48.573Z,43.42
2022-11-20T10:22:44.910Z,48.33
2022-11-20T10:25:23.505Z,39.70
2022-11-20T10:28:01.122Z,38.38
2022-11-20T10:30:28.100Z,37.17
2022-11-20T10:33:21.027Z,41.20
2022-11-20T10:36:01.448Z,28.63
2022-11-20T10:38:52.787Z,42.08
2022-11-20T10:41:26.288Z,42.00
2022-11-20T10:43:59.788Z,37.30
2022-11-20T10:46:27.012Z,41.92
2022-11-20T10:48:53.410Z,39.95
2022-11-20T10:51:36.793Z,34.80
2022-11-20T10:54:26.048Z,38.70
2022-11-20T10:56:54.776Z,36.58
2022-11-20T10:59:36.218Z,34.50
2022-11-20T11:02:13.791Z,30.70
2022-11-20T11:04:46.104Z,33.63
2022-11-20T11:07:24.647Z,33.63
2022-11-20T11:09:55.768Z,38.38
2022-11-20T11:12:26.565Z,33.20
2022-11-20T11:14:55.280Z,31.30
2022-11-20T11:17:28.175Z,33.00
2022-11-20T11:22:33.563Z,31.95
2022-11-20T11:25:00.923Z,33.33
2022-11-20T11:27:27.616Z,35.15
2022-11-20T11:30:30.913Z,33.50
2022-11-20T11:33:06.558Z,25.92
2022-11-20T11:35:33.642Z,35.58
2022-11-20T11:38:08.077Z,34.65
2022-11-20T11:40:38.409Z,31.67
2022-11-20T11:43:38.287Z,33.90
2022-11-20T11:46:25.669Z,35.13
2022-11-20T11:49:00.716Z,33.67
2022-11-20T11:51:39.673Z,30.00
2022-11-20T11:54:17.531Z,34.40
2022-11-20T11:56:45.597Z,32.33
2022-11-20T11:59:23.675Z,32.38
2022-11-20T12:01:58.532Z,33.55
2022-11-20T12:04:51.572Z,30.75
2022-11-20T12:07:46.769Z,37.67
2022-11-20T12:10:21.578Z,34.78
2022-11-20T12:13:04.996Z,30.63
2022-11-20T12:15:34.944Z,34.35
2022-11-20T12:18:02.220Z,33.72
2022-11-20T12:20:40.714Z,30.45
2022-11-20T12:23:26.361Z,30.90
2022-11-20T12:25:57.760Z,31.70
2022-11-20T12:28:42.979Z,33.15
2022-11-20T12:31:51.087Z,34.05
2022-11-20T12:34:41.172Z,29.10
2022-11-20T12:37:36.691Z,30.38
2022-11-20T12:40:21.895Z,30.45
2022-11-20T12:43:41.884Z,30.30
2022-11-20T12:46:27.562Z,30.05
2022-11-20T12:49:13.379Z,29.33
2022-11-20T12:51:53.778Z,28.05
2022-11-20T12:54:47.074Z,30.65
2022-11-20T12:57:26.625Z,28.83
2022-11-20T13:00:09.361Z,30.40
2022-11-20T13:03:04.956Z,32.78
2022-11-20T13:05:50.046Z,25.42
2022-11-20T13:08:33.133Z,26.67
2022-11-20T13:11:14.312Z,28.15
2022-11-20T13:14:05.302Z,26.08
2022-11-20T13:16:37.820Z,25.75
2022-11-20T13:19:06.284Z,24.25
2022-11-20T13:21:47.573Z,26.30
2022-11-20T13:24:20.630Z,27.00
2022-11-20T13:26:47.787Z,24.63
2022-11-20T13:29:20.989Z,26.70
2022-11-20T13:31:49.070Z,25.15
2022-11-20T13:34:25.734Z,22.40
2022-11-20T13:36:55.308Z,25.15
2022-11-20T13:39:29.664Z,23.73
2022-11-20T13:42:16.331Z,22.42
2022-11-20T13:44:51.575Z,23.48
2022-11-20T13:47:26.394Z,19.67
2022-11-20T13:49:57.594Z,23.00
2022-11-20T13:52:39.612Z,22.42
2022-11-20T13:55:12.572Z,24.13
2022-11-20T14:00:13.361Z,20.02
2022-11-20T14:02:41.522Z,22.35
2022-11-20T14:05:21.561Z,24.55
2022-11-20T14:07:48.694Z,28.23
2022-11-20T14:10:31.111Z,21.65
2022-11-20T14:12:58.358Z,24.15
2022-11-20T14:15:25.764Z,20.67
2022-11-20T14:17:52.177Z,21.23
2022-11-20T14:20:23.891Z,20.80
2022-11-20T14:22:54.180Z,18.73
2022-11-20T14:25:24.421Z,19.23
2022-11-20T14:27:57.179Z,17.35
2022-11-20T14:30:29.268Z,19.38
2022-11-20T14:33:02.302Z,17.57
2022-11-20T14:35:35.808Z,17.15
2022-11-20T14:38:04.288Z,19.90
2022-11-20T14:40:36.681Z,20.88
2022-11-20T14:43:18.396Z,18.42
2022-11-20T14:45:49.589Z,18.15
2022-11-20T14:48:16.685Z,20.33
2022-11-20T14:50:43.202Z,17.38
2022-11-20T14:53:09.753Z,18.05
2022-11-20T14:55:38.757Z,14.35
2022-11-20T14:58:26.985Z,14.93
2022-11-20T15:01:13.929Z,15.82
2022-11-20T15:03:41.853Z,18.00
2022-11-20T15:06:12.551Z,16.65
2022-11-20T15:08:39.205Z,14.15
2022-11-20T15:11:19.080Z,13.23
2022-11-20T15:13:45.512Z,15.43
2022-11-20T15:16:20.411Z,15.15
2022-11-20T15:18:47.628Z,17.30
2022-11-20T15:21:19.364Z,16.95
2022-11-20T15:23:45.957Z,19.13
2022-11-20T15:26:19.583Z,21.77
2022-11-20T15:28:50.919Z,21.25
2022-11-20T15:31:20.486Z,21.60
2022-11-20T15:33:47.236Z,19.98
2022-11-20T15:36:13.909Z,19.45
2022-11-20T15:38:40.786Z,20.67
2022-11-20T15:41:07.685Z,20.80
2022-11-20T15:43:34.151Z,17.45
2022-11-20T15:46:07.136Z,19.10
2022-11-20T15:51:27.534Z,22.55
2022-11-20T15:53:55.687Z,18.77
2022-11-20T15:56:22.036Z,21.75
2022-11-20T15:58:48.433Z,19.42
2022-11-20T16:01:17.838Z,18.75
2022-11-20T16:03:44.431Z,18.42
2022-11-20T16:06:10.976Z,18.77
2022-11-20T16:08:37.479Z,22.20
2022-11-20T16:11:04.394Z,22.55
2022-11-20T16:13:51.626Z,18.75
2022-11-20T16:16:24.356Z,20.75
2022-11-20T16:18:51.124Z,18.02
2022-11-20T16:21:18.026Z,17.40
2022-11-20T16:23:44.683Z,17.50
2022-11-20T16:26:17.577Z,18.35
2022-11-20T16:28:44.622Z,18.63
2022-11-20T16:31:12.962Z,20.00
2022-11-20T16:33:40.848Z,19.30
2022-11-20T16:36:16.684Z,19.65
2022-11-20T16:38:43.231Z,18.00
2022-11-20T16:41:16.170Z,18.50
2022-11-20T16:46:17.434Z,18.73
2022-11-20T16:48:43.911Z,19.85
2022-11-20T16:51:12.204Z,16.80
2022-11-20T16:53:39.595Z,20.02
2022-11-20T16:56:18.092Z,18.45
2022-11-20T16:58:46.287Z,18.20
2022-11-20T17:01:15.584Z,18.75
2022-11-20T17:03:43.729Z,17.08
2022-11-20T17:06:18.479Z,21.00
2022-11-20T17:08:46.573Z,19.13
2022-11-20T17:11:15.651Z,18.75
2022-11-20T17:13:42.250Z,21.98
2022-11-20T17:16:20.089Z,21.23
2022-11-20T17:18:46.749Z,18.98
2022-11-20T17:21:13.878Z,19.73
2022-11-20T17:23:42.479Z,19.55
2022-11-20T17:26:11.521Z,19.10
2022-11-20T17:28:38.917Z,18.77
2022-11-20T17:31:08.436Z,23.67
2022-11-20T17:33:36.949Z,18.90
2022-11-20T17:36:04.387Z,19.52
2022-11-20T17:38:54.315Z,22.23
2022-11-20T17:41:22.671Z,21.55
2022-11-20T17:43:49.742Z,18.92
2022-11-20T17:46:19.472Z,19.88
2022-11-20T17:48:47.872Z,16.98
2022-11-20T17:51:19.993Z,24.23
2022-11-20T17:53:52.045Z,14.47
2022-11-20T17:56:37.482Z,19.85
2022-11-20T17:59:08.394Z,20.92
2022-11-20T18:01:35.197Z,20.67
2022-11-20T18:04:02.170Z,20.33
2022-11-20T18:06:29.875Z,21.60
2022-11-20T18:09:01.369Z,22.38
2022-11-20T18:11:33.759Z,20.27
2022-11-20T18:14:21.141Z,19.83
2022-11-20T18:16:51.118Z,23.35
2022-11-20T18:19:25.468Z,23.40
2022-11-20T18:24:20.952Z,20.52
2022-11-20T18:26:47.957Z,18.90
2022-11-20T18:29:14.631Z,19.25
2022-11-20T18:31:41.064Z,21.08
2022-11-20T18:34:11.447Z,19.15
2022-11-20T18:36:38.351Z,18.80
2022-11-20T18:39:04.792Z,19.27
2022-11-20T18:41:50.694Z,16.23
2022-11-20T18:44:40.005Z,21.67
2022-11-20T18:47:13.953Z,18.40
2022-11-20T18:49:50.963Z,20.48
2022-11-20T18:52:22.889Z,19.55
2022-11-20T18:54:50.219Z,19.02
2022-11-20T18:57:18.208Z,17.92
2022-11-20T18:59:44.956Z,18.08
2022-11-20T19:02:13.728Z,16.42
2022-11-20T19:04:40.258Z,15.13
2022-11-20T19:07:07.258Z,14.55
2022-11-20T19:09:34.440Z,14.68
2022-11-20T19:12:01.576Z,12.63
2022-11-20T19:14:28.767Z,12.25
2022-11-20T19:16:55.639Z,16.95
2022-11-20T19:19:23.851Z,11.70
2022-11-20T19:21:52.080Z,9.98
2022-11-20T19:24:18.661Z,7.85
2022-11-20T19:26:45.105Z,8.95
2022-11-20T19:29:14.567Z,9.05
2022-11-20T19:31:41.592Z,8.30
2022-11-20T19:34:09.341Z,12.18
2022-11-20T19:36:43.204Z,10.23
2022-11-20T19:39:11.741Z,4.70
2022-11-20T19:41:39.585Z,7.93
2022-11-20T19:44:15.000Z,16.42
2022-11-20T19:46:41.888Z,5.38
2022-11-20T19:49:10.569Z,10.43
2022-11-20T19:51:39.276Z,7.30
2022-11-20T19:54:06.335Z,7.82
2022-11-20T19:56:34.077Z,6.03
2022-11-20T19:59:06.361Z,7.35
2022-11-20T20:01:33.628Z,4.85
2022-11-20T20:04:02.428Z,4.40
2022-11-20T20:06:30.446Z,4.15
2022-11-20T20:09:04.080Z,4.85
2022-11-20T20:11:32.857Z,8.73
2022-11-20T20:14:07.313Z,5.53
2022-11-20T20:16:38.323Z,2.45
2022-11-20T20:19:16.422Z,9.18
2022-11-20T20:21:49.735Z,5.40
2022-11-20T20:24:16.634Z,3.75
2022-11-20T20:26:43.299Z,4.20
2022-11-20T20:29:09.873Z,2.13
2022-11-20T20:31:36.661Z,2.60
2022-11-20T20:34:05.130Z,4.20
2022-11-20T20:36:31.668Z,3.50
2022-11-20T20:39:05.150Z,8.02
2022-11-20T20:41:32.915Z,4.65
2022-11-20T20:44:23.932Z,3.15
2022-11-20T20:46:53.498Z,5.88
2022-11-20T20:49:20.074Z,3.38
2022-11-20T20:51:46.569Z,18.50
2022-11-20T20:54:13.259Z,14.80
2022-11-20T20:56:39.850Z,7.60
2022-11-20T20:59:06.596Z,3.65
2022-11-20T21:01:33.441Z,4.75
2022-11-20T21:03:59.979Z,2.33
2022-11-20T21:06:27.030Z,1.33
2022-11-20T21:08:55.777Z,1.45
2022-11-20T21:11:26.668Z,2.72
2022-11-20T21:13:53.613Z,2.95
2022-11-20T21:16:22.195Z,1.88
2022-11-20T21:18:49.235Z,1.20
2022-11-20T21:21:35.268Z,1.25
2022-11-20T21:24:02.941Z,2.22
2022-11-20T21:26:29.444Z,1.73
2022-11-20T21:28:57.370Z,1.80
2022-11-20T21:31:26.396Z,1.80
2022-11-20T21:33:54.784Z,1.50
2022-11-20T21:36:24.045Z,2.42
2022-11-20T21:38:52.220Z,1.45
2022-11-20T21:41:18.993Z,1.50
2022-11-20T21:43:45.775Z,1.60
2022-11-20T21:46:16.000Z,4.97
2022-11-20T21:48:44.023Z,13.18
2022-11-20T21:51:11.643Z,3.88
2022-11-20T21:53:38.841Z,2.33
2022-11-20T21:56:06.795Z,1.98
2022-11-20T21:58:34.230Z,4.53
2022-11-20T22:01:08.080Z,5.05
2022-11-20T22:03:34.579Z,3.95
2022-11-20T22:06:00.981Z,5.07
2022-11-20T22:08:27.806Z,3.60
2022-11-20T22:10:59.598Z,2.90
2022-11-20T22:13:46.250Z,2.10
2022-11-20T22:16:13.597Z,1.92
2022-11-20T22:18:44.623Z,3.55
2022-11-20T22:21:11.999Z,1.90
2022-11-20T22:23:38.579Z,3.00
2022-11-20T22:26:08.000Z,6.13
2022-11-20T22:28:35.344Z,3.05
2022-11-20T22:31:03.470Z,4.15
2022-11-20T22:33:31.726Z,2.53
2022-11-20T22:36:16.486Z,3.30
2022-11-20T22:38:43.245Z,2.47
2022-11-20T22:41:18.387Z,2.88
2022-11-20T22:43:45.650Z,3.13
2022-11-20T22:46:14.911Z,2.65
2022-11-20T22:48:43.946Z,2.60
2022-11-20T22:51:13.421Z,3.45
2022-11-20T22:53:40.943Z,4.60
2022-11-20T22:56:09.772Z,3.60
2022-11-20T22:58:37.485Z,2.90
2022-11-20T23:01:14.961Z,3.13
2022-11-20T23:03:44.420Z,5.05
2022-11-20T23:06:12.718Z,3.85
2022-11-20T23:08:40.495Z,5.05
2022-11-20T23:11:09.875Z,1.90
2022-11-20T23:13:36.651Z,3.17
2022-11-20T23:16:05.900Z,2.50
2022-11-20T23:18:34.232Z,4.13
2022-11-20T23:21:09.498Z,5.40
2022-11-20T23:23:36.415Z,3.22
2022-11-20T23:26:13.686Z,2.97
2022-11-20T23:28:41.180Z,3.58
2022-11-20T23:31:09.100Z,1.90
2022-11-20T23:33:36.905Z,3.40
2022-11-20T23:36:03.848Z,2.55
2022-11-20T23:38:30.241Z,4.43
2022-11-20T23:40:56.622Z,1.92
2022-11-20T23:43:24.156Z,3.85
2022-11-20T23:45:52.875Z,2.13
2022-11-20T23:48:20.702Z,2.15
2022-11-20T23:50:47.388Z,3.03
2022-11-20T23:53:14.824Z,1.55
2022-11-20T23:55:49.538Z,2.75
2022-11-20T23:58:16.601Z,1.08
